Furlow, Arkansas
Current Conditions -  °F | °C
As of 8:58 AM on Friday 19 Dec 2014 (Local Time) from KLRF Reporting Station
Overcast Overcast  
Wind Chill: 36°   Ceiling: 800
Heat Index: 41°   Visibility: 10mi
Dew Point: 38°   Wind: 7mph
Humidity: 89%   Direction: 50°NE
Pressure: 30.27"   Gusts: NA
Location:  34.7557°N, 91.9476°W
Report Text: KLRF 191458Z AUTO 05006KT 10SM BKN008 OVC021 05/03 A3027 RMK AO2 SLP255 T00490033 52018
Loading
Personal Weather Stations






























Interactive Weather Map New forecast layout! Learn more

10-Day Weather Forecast

Advertisements
Track Severe Weather on mobile